sensor_id;sensor_type;location;lat;lon;timestamp;pressure;altitude;pressure_sealevel;temperature;humidity
4199;BME280;2113;50.946;14.610;2022-12-11T00:01:07;96195.34;;;-0.46;67.96
4199;BME280;2113;50.946;14.610;2022-12-11T00:03:36;96195.81;;;-0.02;67.38
4199;BME280;2113;50.946;14.610;2022-12-11T00:06:05;96194.41;;;-0.34;68.18
4199;BME280;2113;50.946;14.610;2022-12-11T00:08:35;96180.69;;;-0.21;67.40
4199;BME280;2113;50.946;14.610;2022-12-11T00:11:03;96177.22;;;-0.15;67.29
4199;BME280;2113;50.946;14.610;2022-12-11T00:13:33;96184.06;;;-0.22;67.16
4199;BME280;2113;50.946;14.610;2022-12-11T00:16:02;96183.34;;;-0.34;67.45
4199;BME280;2113;50.946;14.610;2022-12-11T00:18:30;96172.81;;;0.01;67.33
4199;BME280;2113;50.946;14.610;2022-12-11T00:20:59;96179.03;;;-0.31;67.67
4199;BME280;2113;50.946;14.610;2022-12-11T00:23:28;96172.59;;;0.23;66.33
4199;BME280;2113;50.946;14.610;2022-12-11T00:25:56;96178.88;;;-0.12;66.73
4199;BME280;2113;50.946;14.610;2022-12-11T00:28:25;96181.78;;;-0.54;67.91
4199;BME280;2113;50.946;14.610;2022-12-11T00:30:54;96169.66;;;-0.27;67.38
4199;BME280;2113;50.946;14.610;2022-12-11T00:33:25;96171.56;;;0.39;65.69
4199;BME280;2113;50.946;14.610;2022-12-11T00:35:53;96169.31;;;0.10;66.58
4199;BME280;2113;50.946;14.610;2022-12-11T00:38:21;96167.69;;;-0.01;66.23
4199;BME280;2113;50.946;14.610;2022-12-11T00:40:49;96172.09;;;-0.13;67.17
4199;BME280;2113;50.946;14.610;2022-12-11T00:43:18;96172.66;;;0.13;66.08
4199;BME280;2113;50.946;14.610;2022-12-11T00:45:46;96181.56;;;-0.26;66.56
4199;BME280;2113;50.946;14.610;2022-12-11T00:48:16;96183.53;;;0.34;65.50
4199;BME280;2113;50.946;14.610;2022-12-11T00:50:45;96194.16;;;-0.03;66.39
4199;BME280;2113;50.946;14.610;2022-12-11T00:53:13;96188.41;;;-0.27;66.83
4199;BME280;2113;50.946;14.610;2022-12-11T00:55:42;96190.75;;;-0.05;66.61
4199;BME280;2113;50.946;14.610;2022-12-11T00:58:11;96187.16;;;0.17;65.70
4199;BME280;2113;50.946;14.610;2022-12-11T01:00:40;96191.69;;;0.67;64.52
4199;BME280;2113;50.946;14.610;2022-12-11T01:03:10;96194.75;;;0.21;65.50
4199;BME280;2113;50.946;14.610;2022-12-11T01:05:50;96200.59;;;0.35;65.28
4199;BME280;2113;50.946;14.610;2022-12-11T01:08:18;96200.69;;;0.26;65.15
4199;BME280;2113;50.946;14.610;2022-12-11T01:10:47;96201.00;;;-0.08;65.86
4199;BME280;2113;50.946;14.610;2022-12-11T01:13:15;96209.66;;;-0.25;66.61
4199;BME280;2113;50.946;14.610;2022-12-11T01:15:44;96199.78;;;0.31;65.05
4199;BME280;2113;50.946;14.610;2022-12-11T01:18:13;96194.34;;;-0.28;66.28
4199;BME280;2113;50.946;14.610;2022-12-11T01:20:43;96200.22;;;-0.18;66.11
4199;BME280;2113;50.946;14.610;2022-12-11T01:23:12;96202.03;;;-0.31;66.44
4199;BME280;2113;50.946;14.610;2022-12-11T01:25:41;96202.97;;;-0.38;66.16
4199;BME280;2113;50.946;14.610;2022-12-11T01:28:09;96199.06;;;0.18;65.59
4199;BME280;2113;50.946;14.610;2022-12-11T01:30:39;96209.34;;;0.12;65.05
4199;BME280;2113;50.946;14.610;2022-12-11T01:33:08;96200.50;;;0.44;64.19
4199;BME280;2113;50.946;14.610;2022-12-11T01:35:37;96208.72;;;-0.13;65.72
4199;BME280;2113;50.946;14.610;2022-12-11T01:38:08;96201.72;;;0.06;65.51
4199;BME280;2113;50.946;14.610;2022-12-11T01:40:37;96197.81;;;-0.35;65.99
4199;BME280;2113;50.946;14.610;2022-12-11T01:43:05;96190.13;;;-0.33;66.31
4199;BME280;2113;50.946;14.610;2022-12-11T01:45:38;96194.34;;;-0.28;66.24
4199;BME280;2113;50.946;14.610;2022-12-11T01:48:10;96203.88;;;-0.50;66.60
4199;BME280;2113;50.946;14.610;2022-12-11T01:50:43;96195.31;;;-0.43;66.70
4199;BME280;2113;50.946;14.610;2022-12-11T01:53:16;96209.41;;;0.03;65.88
4199;BME280;2113;50.946;14.610;2022-12-11T01:55:47;96211.56;;;-0.54;66.82
4199;BME280;2113;50.946;14.610;2022-12-11T01:58:19;96210.91;;;0.29;65.19
4199;BME280;2113;50.946;14.610;2022-12-11T02:00:50;96204.38;;;-0.03;65.10
4199;BME280;2113;50.946;14.610;2022-12-11T02:03:20;96202.78;;;-0.13;65.34
4199;BME280;2113;50.946;14.610;2022-12-11T02:05:48;96204.50;;;-0.18;65.36
4199;BME280;2113;50.946;14.610;2022-12-11T02:08:27;96198.22;;;0.13;64.93
4199;BME280;2113;50.946;14.610;2022-12-11T02:11:05;96206.16;;;-0.11;65.32
4199;BME280;2113;50.946;14.610;2022-12-11T02:13:42;96201.75;;;0.03;65.36
4199;BME280;2113;50.946;14.610;2022-12-11T02:16:18;96195.88;;;-0.05;65.07
4199;BME280;2113;50.946;14.610;2022-12-11T02:18:51;96202.97;;;-0.38;66.41
4199;BME280;2113;50.946;14.610;2022-12-11T02:21:24;96185.16;;;-0.49;66.54
4199;BME280;2113;50.946;14.610;2022-12-11T02:24:12;96181.22;;;0.14;65.17
4199;BME280;2113;50.946;14.610;2022-12-11T02:26:57;96184.75;;;0.02;65.16
4199;BME280;2113;50.946;14.610;2022-12-11T02:29:34;96178.75;;;0.02;65.64
4199;BME280;2113;50.946;14.610;2022-12-11T02:32:08;96186.56;;;-0.11;65.44
4199;BME280;2113;50.946;14.610;2022-12-11T02:34:41;96175.50;;;-0.11;65.41
4199;BME280;2113;50.946;14.610;2022-12-11T02:37:13;96176.47;;;-0.29;65.34
4199;BME280;2113;50.946;14.610;2022-12-11T02:39:44;96167.00;;;-0.13;65.07
4199;BME280;2113;50.946;14.610;2022-12-11T02:42:14;96172.38;;;-0.47;66.65
4199;BME280;2113;50.946;14.610;2022-12-11T02:44:45;96176.47;;;-0.31;65.66
4199;BME280;2113;50.946;14.610;2022-12-11T02:47:17;96179.81;;;-0.20;65.14
4199;BME280;2113;50.946;14.610;2022-12-11T02:49:48;96178.06;;;-0.16;65.16
4199;BME280;2113;50.946;14.610;2022-12-11T02:52:19;96182.56;;;-0.44;65.61
4199;BME280;2113;50.946;14.610;2022-12-11T02:54:49;96182.44;;;-0.29;65.29
4199;BME280;2113;50.946;14.610;2022-12-11T02:57:23;96173.16;;;-0.37;65.45
4199;BME280;2113;50.946;14.610;2022-12-11T02:59:54;96174.69;;;-0.16;64.96
4199;BME280;2113;50.946;14.610;2022-12-11T03:02:22;96184.06;;;-0.22;64.95
4199;BME280;2113;50.946;14.610;2022-12-11T03:04:51;96166.72;;;0.11;64.01
4199;BME280;2113;50.946;14.610;2022-12-11T03:07:22;96176.81;;;0.27;63.86
4199;BME280;2113;50.946;14.610;2022-12-11T03:09:52;96170.53;;;-0.28;65.07
4199;BME280;2113;50.946;14.610;2022-12-11T03:12:23;96169.09;;;0.31;63.89
4199;BME280;2113;50.946;14.610;2022-12-11T03:14:53;96172.72;;;0.09;64.19
4199;BME280;2113;50.946;14.610;2022-12-11T03:17:24;96173.00;;;-0.19;64.62
4199;BME280;2113;50.946;14.610;2022-12-11T03:19:59;96172.91;;;-0.10;64.48
4199;BME280;2113;50.946;14.610;2022-12-11T03:22:36;96172.66;;;0.13;63.71
4199;BME280;2113;50.946;14.610;2022-12-11T03:25:09;96181.75;;;-0.51;65.48
4199;BME280;2113;50.946;14.610;2022-12-11T03:27:44;96181.88;;;-0.68;66.06
4199;BME280;2113;50.946;14.610;2022-12-11T03:30:18;96182.84;;;-0.87;66.45
4199;BME280;2113;50.946;14.610;2022-12-11T03:32:48;96185.38;;;-0.81;65.55
4199;BME280;2113;50.946;14.610;2022-12-11T03:35:22;96180.81;;;-0.34;65.21
4199;BME280;2113;50.946;14.610;2022-12-11T03:37:52;96185.78;;;-0.24;64.83
4199;BME280;2113;50.946;14.610;2022-12-11T03:40:22;96182.66;;;-0.53;64.82
4199;BME280;2113;50.946;14.610;2022-12-11T03:42:55;96181.38;;;-0.03;64.12
4199;BME280;2113;50.946;14.610;2022-12-11T03:45:27;96179.94;;;-0.36;64.21
4199;BME280;2113;50.946;14.610;2022-12-11T03:47:58;96196.44;;;-0.82;65.65
4199;BME280;2113;50.946;14.610;2022-12-11T03:50:28;96199.94;;;-0.95;65.42
4199;BME280;2113;50.946;14.610;2022-12-11T03:52:59;96193.13;;;-0.96;65.94
4199;BME280;2113;50.946;14.610;2022-12-11T03:55:29;96185.94;;;-0.39;64.56
4199;BME280;2113;50.946;14.610;2022-12-11T03:57:59;96186.88;;;-0.55;65.05
4199;BME280;2113;50.946;14.610;2022-12-11T04:00:29;96200.41;;;-0.43;64.21
4199;BME280;2113;50.946;14.610;2022-12-11T04:02:57;96189.59;;;-0.74;65.07
4199;BME280;2113;50.946;14.610;2022-12-11T04:05:43;96198.88;;;-0.64;64.87
4199;BME280;2113;50.946;14.610;2022-12-11T04:08:11;96184.19;;;-0.34;64.66
4199;BME280;2113;50.946;14.610;2022-12-11T04:10:40;96200.63;;;-0.72;64.41
4199;BME280;2113;50.946;14.610;2022-12-11T04:13:09;96203.25;;;-0.84;65.38
4199;BME280;2113;50.946;14.610;2022-12-11T04:15:39;96207.56;;;-0.92;65.54
4199;BME280;2113;50.946;14.610;2022-12-11T04:18:07;96204.09;;;-0.84;65.47
4199;BME280;2113;50.946;14.610;2022-12-11T04:20:53;96194.47;;;-0.43;64.75
4199;BME280;2113;50.946;14.610;2022-12-11T04:23:39;96184.06;;;-0.22;64.06
4199;BME280;2113;50.946;14.610;2022-12-11T04:26:26;96195.38;;;-0.47;64.05
4199;BME280;2113;50.946;14.610;2022-12-11T04:28:54;96192.84;;;-0.53;64.48
4199;BME280;2113;50.946;14.610;2022-12-11T04:31:23;96200.69;;;-0.83;65.12
4199;BME280;2113;50.946;14.610;2022-12-11T04:33:51;96193.81;;;-0.70;65.21
4199;BME280;2113;50.946;14.610;2022-12-11T04:36:19;96199.94;;;-1.02;65.05
4199;BME280;2113;50.946;14.610;2022-12-11T04:38:48;96189.41;;;-0.49;64.45
4199;BME280;2113;50.946;14.610;2022-12-11T04:41:16;96190.47;;;-0.81;64.24
4199;BME280;2113;50.946;14.610;2022-12-11T04:43:44;96195.78;;;-1.20;65.37
4199;BME280;2113;50.946;14.610;2022-12-11T04:46:14;96187.97;;;-0.90;64.49
4199;BME280;2113;50.946;14.610;2022-12-11T04:48:44;96186.97;;;-0.68;64.36
4199;BME280;2113;50.946;14.610;2022-12-11T04:51:18;96190.50;;;-0.86;64.61
4199;BME280;2113;50.946;14.610;2022-12-11T04:53:46;96187.19;;;-1.02;65.05
4199;BME280;2113;50.946;14.610;2022-12-11T04:56:15;96191.25;;;-0.67;63.51
4199;BME280;2113;50.946;14.610;2022-12-11T04:58:44;96181.13;;;-0.84;64.27
4199;BME280;2113;50.946;14.610;2022-12-11T05:01:14;96182.53;;;-0.38;63.25
4199;BME280;2113;50.946;14.610;2022-12-11T05:03:45;96193.84;;;-0.74;64.15
4199;BME280;2113;50.946;14.610;2022-12-11T05:06:13;96187.75;;;-0.56;63.75
4199;BME280;2113;50.946;14.610;2022-12-11T05:08:42;96191.16;;;-0.56;63.07
4199;BME280;2113;50.946;14.610;2022-12-11T05:11:13;96180.16;;;-0.66;63.68
4199;BME280;2113;50.946;14.610;2022-12-11T05:13:42;96181.94;;;-0.79;63.89
4199;BME280;2113;50.946;14.610;2022-12-11T05:16:13;96186.03;;;-0.54;63.29
4199;BME280;2113;50.946;14.610;2022-12-11T05:18:43;96172.69;;;-0.96;63.98
4199;BME280;2113;50.946;14.610;2022-12-11T05:21:14;96181.28;;;-1.13;64.39
4199;BME280;2113;50.946;14.610;2022-12-11T05:23:42;96168.41;;;-0.90;63.68
4199;BME280;2113;50.946;14.610;2022-12-11T05:26:12;96171.06;;;-1.07;63.99
4199;BME280;2113;50.946;14.610;2022-12-11T05:28:41;96169.16;;;-0.74;63.13
4199;BME280;2113;50.946;14.610;2022-12-11T05:31:12;96172.69;;;-0.98;64.04
4199;BME280;2113;50.946;14.610;2022-12-11T05:33:41;96166.88;;;-1.23;64.57
4199;BME280;2113;50.946;14.610;2022-12-11T05:36:14;96165.09;;;-1.06;64.03
4199;BME280;2113;50.946;14.610;2022-12-11T05:38:43;96160.13;;;-1.32;64.92
4199;BME280;2113;50.946;14.610;2022-12-11T05:41:12;96166.84;;;-1.15;63.96
4199;BME280;2113;50.946;14.610;2022-12-11T05:43:41;96164.13;;;-0.83;62.98
4199;BME280;2113;50.946;14.610;2022-12-11T05:46:10;96166.09;;;-1.31;64.65
4199;BME280;2113;50.946;14.610;2022-12-11T05:48:39;96166.66;;;-0.83;63.71
4199;BME280;2113;50.946;14.610;2022-12-11T05:51:11;96160.19;;;-1.41;64.69
4199;BME280;2113;50.946;14.610;2022-12-11T05:53:41;96162.69;;;-1.40;64.28
4199;BME280;2113;50.946;14.610;2022-12-11T05:56:12;96165.16;;;-1.16;64.02
4199;BME280;2113;50.946;14.610;2022-12-11T05:58:41;96165.00;;;-0.92;63.59
4199;BME280;2113;50.946;14.610;2022-12-11T06:01:12;96158.91;;;-0.71;63.12
4199;BME280;2113;50.946;14.610;2022-12-11T06:03:41;96155.53;;;-0.73;62.97
4199;BME280;2113;50.946;14.610;2022-12-11T06:06:11;96156.41;;;-0.75;63.24
4199;BME280;2113;50.946;14.610;2022-12-11T06:08:39;96156.34;;;-0.65;62.86
4199;BME280;2113;50.946;14.610;2022-12-11T06:11:07;96164.25;;;-1.08;64.34
4199;BME280;2113;50.946;14.610;2022-12-11T06:13:36;96154.75;;;-0.81;63.29
4199;BME280;2113;50.946;14.610;2022-12-11T06:16:05;96161.84;;;-1.39;64.00
4199;BME280;2113;50.946;14.610;2022-12-11T06:18:35;96155.91;;;-1.38;64.84
4199;BME280;2113;50.946;14.610;2022-12-11T06:21:12;96160.94;;;-1.25;64.49
4199;BME280;2113;50.946;14.610;2022-12-11T06:23:40;96164.34;;;-1.23;64.32
4199;BME280;2113;50.946;14.610;2022-12-11T06:26:09;96173.84;;;-1.68;64.79
4199;BME280;2113;50.946;14.610;2022-12-11T06:28:38;96169.50;;;-1.40;64.91
4199;BME280;2113;50.946;14.610;2022-12-11T06:31:06;96182.28;;;-1.49;65.09
4199;BME280;2113;50.946;14.610;2022-12-11T06:33:35;96181.53;;;-1.84;65.55
4199;BME280;2113;50.946;14.610;2022-12-11T06:36:05;96183.25;;;-1.81;65.11
4199;BME280;2113;50.946;14.610;2022-12-11T06:38:36;96186.56;;;-1.59;64.49
4199;BME280;2113;50.946;14.610;2022-12-11T06:41:05;96184.75;;;-1.26;64.10
4199;BME280;2113;50.946;14.610;2022-12-11T06:43:36;96188.31;;;-1.77;64.71
4199;BME280;2113;50.946;14.610;2022-12-11T06:46:05;96188.28;;;-1.61;64.31
4199;BME280;2113;50.946;14.610;2022-12-11T06:48:34;96193.47;;;-1.92;65.05
4199;BME280;2113;50.946;14.610;2022-12-11T06:51:04;96189.13;;;-1.61;64.51
4199;BME280;2113;50.946;14.610;2022-12-11T06:53:35;96186.56;;;-1.56;64.09
4199;BME280;2113;50.946;14.610;2022-12-11T06:56:04;96193.41;;;-1.70;64.50
4199;BME280;2113;50.946;14.610;2022-12-11T06:58:34;96195.06;;;-1.52;63.88
4199;BME280;2113;50.946;14.610;2022-12-11T07:01:03;96193.34;;;-1.50;63.40
4199;BME280;2113;50.946;14.610;2022-12-11T07:03:32;96199.34;;;-1.67;63.55
4199;BME280;2113;50.946;14.610;2022-12-11T07:06:00;96208.56;;;-1.30;63.28
4199;BME280;2113;50.946;14.610;2022-12-11T07:08:29;96203.44;;;-1.23;63.02
4199;BME280;2113;50.946;14.610;2022-12-11T07:11:03;96209.34;;;-1.13;62.21
4199;BME280;2113;50.946;14.610;2022-12-11T07:13:31;96201.66;;;-1.04;62.23
4199;BME280;2113;50.946;14.610;2022-12-11T07:15:59;96212.66;;;-0.94;61.71
4199;BME280;2113;50.946;14.610;2022-12-11T07:18:30;96209.25;;;-0.98;61.67
4199;BME280;2113;50.946;14.610;2022-12-11T07:20:59;96210.19;;;-1.08;62.14
4199;BME280;2113;50.946;14.610;2022-12-11T07:23:27;96214.38;;;-0.98;62.65
4199;BME280;2113;50.946;14.610;2022-12-11T07:25:55;96213.53;;;-0.98;61.91
4199;BME280;2113;50.946;14.610;2022-12-11T07:28:25;96210.38;;;-1.54;62.90
4199;BME280;2113;50.946;14.610;2022-12-11T07:30:53;96212.84;;;-1.34;63.42
4199;BME280;2113;50.946;14.610;2022-12-11T07:33:22;96212.72;;;-1.08;62.49
4199;BME280;2113;50.946;14.610;2022-12-11T07:35:50;96212.47;;;-0.57;61.49
4199;BME280;2113;50.946;14.610;2022-12-11T07:38:18;96216.72;;;-0.61;60.88
4199;BME280;2113;50.946;14.610;2022-12-11T07:40:46;96209.63;;;-0.22;60.42
4199;BME280;2113;50.946;14.610;2022-12-11T07:43:15;96208.72;;;-0.13;59.88
4199;BME280;2113;50.946;14.610;2022-12-11T07:45:44;96211.22;;;-0.05;59.69
4199;BME280;2113;50.946;14.610;2022-12-11T07:48:13;96201.13;;;-0.24;59.77
4199;BME280;2113;50.946;14.610;2022-12-11T07:50:41;96211.53;;;-0.48;60.39
4199;BME280;2113;50.946;14.610;2022-12-11T07:53:09;96212.16;;;-0.17;59.84
4199;BME280;2113;50.946;14.610;2022-12-11T07:55:37;96215.50;;;-0.12;59.65
4199;BME280;2113;50.946;14.610;2022-12-11T07:58:06;96219.78;;;-0.12;59.59
4199;BME280;2113;50.946;14.610;2022-12-11T08:00:34;96212.66;;;0.24;59.06
4199;BME280;2113;50.946;14.610;2022-12-11T08:03:03;96208.84;;;-0.33;59.54
4199;BME280;2113;50.946;14.610;2022-12-11T08:05:31;96209.56;;;-0.15;59.93
4199;BME280;2113;50.946;14.610;2022-12-11T08:08:00;96211.28;;;-0.14;60.03
4199;BME280;2113;50.946;14.610;2022-12-11T08:10:28;96205.19;;;0.01;59.57
4199;BME280;2113;50.946;14.610;2022-12-11T08:12:57;96201.38;;;0.40;58.98
4199;BME280;2113;50.946;14.610;2022-12-11T08:15:25;96204.56;;;0.62;58.01
4199;BME280;2113;50.946;14.610;2022-12-11T08:17:53;96204.88;;;0.33;58.51
4199;BME280;2113;50.946;14.610;2022-12-11T08:20:22;96197.72;;;0.63;57.96
4199;BME280;2113;50.946;14.610;2022-12-11T08:22:51;96198.06;;;0.30;58.21
4199;BME280;2113;50.946;14.610;2022-12-11T08:25:24;96202.19;;;0.47;58.18
4199;BME280;2113;50.946;14.610;2022-12-11T08:27:53;96188.63;;;0.38;58.12
4199;BME280;2113;50.946;14.610;2022-12-11T08:30:21;96188.41;;;0.58;58.00
4199;BME280;2113;50.946;14.610;2022-12-11T08:32:49;96190.78;;;0.74;57.61
4199;BME280;2113;50.946;14.610;2022-12-11T08:35:18;96183.72;;;0.91;57.26
4199;BME280;2113;50.946;14.610;2022-12-11T08:37:47;96183.28;;;1.24;56.62
4199;BME280;2113;50.946;14.610;2022-12-11T08:40:15;96184.41;;;1.06;56.75
4199;BME280;2113;50.946;14.610;2022-12-11T08:42:43;96186.75;;;1.21;55.14
4199;BME280;2113;50.946;14.610;2022-12-11T08:45:12;96175.59;;;1.25;55.86
4199;BME280;2113;50.946;14.610;2022-12-11T08:47:40;96185.56;;;0.80;56.11
4199;BME280;2113;50.946;14.610;2022-12-11T08:50:09;96176.91;;;0.92;56.23
4199;BME280;2113;50.946;14.610;2022-12-11T08:52:37;96182.25;;;0.75;56.79
4199;BME280;2113;50.946;14.610;2022-12-11T08:55:07;96177.38;;;1.20;56.02
4199;BME280;2113;50.946;14.610;2022-12-11T08:57:36;96182.44;;;1.26;54.94
4199;BME280;2113;50.946;14.610;2022-12-11T09:00:06;96179.50;;;0.90;55.57
4199;BME280;2113;50.946;14.610;2022-12-11T09:02:36;96182.03;;;1.51;55.77
4199;BME280;2113;50.946;14.610;2022-12-11T09:05:05;96186.13;;;1.05;55.71
4199;BME280;2113;50.946;14.610;2022-12-11T09:07:36;96184.88;;;1.34;55.66
4199;BME280;2113;50.946;14.610;2022-12-11T09:10:07;96185.28;;;1.62;54.78
4199;BME280;2113;50.946;14.610;2022-12-11T09:12:36;96187.72;;;1.14;56.05
4199;BME280;2113;50.946;14.610;2022-12-11T09:15:05;96184.22;;;1.75;54.93
4199;BME280;2113;50.946;14.610;2022-12-11T09:17:34;96186.84;;;1.72;54.85
4199;BME280;2113;50.946;14.610;2022-12-11T09:20:03;96187.13;;;1.54;54.56
4199;BME280;2113;50.946;14.610;2022-12-11T09:22:32;96192.72;;;0.53;57.55
4199;BME280;2113;50.946;14.610;2022-12-11T09:25:00;96189.81;;;0.84;57.36
4199;BME280;2113;50.946;14.610;2022-12-11T09:27:30;96182.34;;;0.67;58.65
4199;BME280;2113;50.946;14.610;2022-12-11T09:29:58;96185.94;;;0.49;58.38
4199;BME280;2113;50.946;14.610;2022-12-11T09:32:26;96178.66;;;0.12;59.54
4199;BME280;2113;50.946;14.610;2022-12-11T09:34:54;96185.19;;;0.39;58.96
4199;BME280;2113;50.946;14.610;2022-12-11T09:37:23;96183.59;;;0.31;59.29
4199;BME280;2113;50.946;14.610;2022-12-11T09:39:51;96191.03;;;-0.42;60.95
4199;BME280;2113;50.946;14.610;2022-12-11T09:42:23;96189.38;;;-0.43;61.78
4199;BME280;2113;50.946;14.610;2022-12-11T09:44:59;96201.47;;;-0.67;62.34
4199;BME280;2113;50.946;14.610;2022-12-11T09:47:33;96188.75;;;-0.81;62.51
4199;BME280;2113;50.946;14.610;2022-12-11T09:50:11;96189.03;;;-0.03;60.84
4199;BME280;2113;50.946;14.610;2022-12-11T09:52:53;96178.66;;;0.12;59.71
4199;BME280;2113;50.946;14.610;2022-12-11T09:55:25;96180.31;;;0.16;59.46
4199;BME280;2113;50.946;14.610;2022-12-11T09:58:02;96182.41;;;-0.26;59.47
4199;BME280;2113;50.946;14.610;2022-12-11T10:00:37;96182.59;;;-0.47;60.52
4199;BME280;2113;50.946;14.610;2022-12-11T10:03:30;96182.63;;;0.41;58.39
4199;BME280;2113;50.946;14.610;2022-12-11T10:06:06;96175.72;;;-0.39;59.59
4199;BME280;2113;50.946;14.610;2022-12-11T10:08:44;96176.13;;;0.11;58.58
4199;BME280;2113;50.946;14.610;2022-12-11T10:11:38;96175.22;;;0.13;57.96
4199;BME280;2113;50.946;14.610;2022-12-11T10:14:16;96165.34;;;0.62;57.51
4199;BME280;2113;50.946;14.610;2022-12-11T10:16:51;96156.22;;;0.39;57.32
4199;BME280;2113;50.946;14.610;2022-12-11T10:19:24;96157.47;;;0.01;58.20
4199;BME280;2113;50.946;14.610;2022-12-11T10:21:53;96161.16;;;-0.31;59.59
4199;BME280;2113;50.946;14.610;2022-12-11T10:24:27;96157.31;;;0.15;58.44
4199;BME280;2113;50.946;14.610;2022-12-11T10:27:20;96148.22;;;-0.09;58.81
4199;BME280;2113;50.946;14.610;2022-12-11T10:29:55;96145.34;;;0.23;57.77
4199;BME280;2113;50.946;14.610;2022-12-11T10:32:35;96142.53;;;0.42;57.21
4199;BME280;2113;50.946;14.610;2022-12-11T10:35:08;96133.66;;;0.72;56.32
4199;BME280;2113;50.946;14.610;2022-12-11T10:37:44;96133.00;;;0.57;56.17
4199;BME280;2113;50.946;14.610;2022-12-11T10:40:12;96133.56;;;0.05;57.21
4199;BME280;2113;50.946;14.610;2022-12-11T10:42:50;96128.84;;;0.47;56.62
4199;BME280;2113;50.946;14.610;2022-12-11T10:45:19;96117.78;;;-0.37;57.82
4199;BME280;2113;50.946;14.610;2022-12-11T10:47:49;96114.66;;;-0.70;58.73
4199;BME280;2113;50.946;14.610;2022-12-11T10:50:22;96107.38;;;-0.15;58.01
4199;BME280;2113;50.946;14.610;2022-12-11T10:52:52;96111.16;;;-0.53;58.17
4199;BME280;2113;50.946;14.610;2022-12-11T10:55:23;96114.53;;;-0.51;58.24
4199;BME280;2113;50.946;14.610;2022-12-11T10:57:54;96108.59;;;-0.53;58.33
4199;BME280;2113;50.946;14.610;2022-12-11T11:00:34;96107.72;;;-0.54;58.64
4199;BME280;2113;50.946;14.610;2022-12-11T11:03:17;96095.94;;;0.21;56.82
4199;BME280;2113;50.946;14.610;2022-12-11T11:05:47;96106.06;;;0.27;56.24
4199;BME280;2113;50.946;14.610;2022-12-11T11:08:18;96105.69;;;0.58;56.63
4199;BME280;2113;50.946;14.610;2022-12-11T11:10:53;96105.16;;;0.33;56.46
4199;BME280;2113;50.946;14.610;2022-12-11T11:13:25;96105.00;;;0.45;56.38
4199;BME280;2113;50.946;14.610;2022-12-11T11:16:01;96101.91;;;0.18;56.86
4199;BME280;2113;50.946;14.610;2022-12-11T11:18:33;96102.44;;;0.47;56.43
4199;BME280;2113;50.946;14.610;2022-12-11T11:21:02;96100.78;;;0.41;56.71
4199;BME280;2113;50.946;14.610;2022-12-11T11:23:30;96095.69;;;0.39;57.05
4199;BME280;2113;50.946;14.610;2022-12-11T11:26:07;96101.06;;;0.19;57.93
4199;BME280;2113;50.946;14.610;2022-12-11T11:28:38;96102.97;;;0.69;56.79
4199;BME280;2113;50.946;14.610;2022-12-11T11:31:09;96103.88;;;-0.08;58.40
4199;BME280;2113;50.946;14.610;2022-12-11T11:33:50;96102.78;;;0.17;57.81
4199;BME280;2113;50.946;14.610;2022-12-11T11:36:23;96099.56;;;0.00;58.08
4199;BME280;2113;50.946;14.610;2022-12-11T11:39:03;96110.34;;;-0.62;60.18
4199;BME280;2113;50.946;14.610;2022-12-11T11:41:38;96103.69;;;-0.78;60.61
4199;BME280;2113;50.946;14.610;2022-12-11T11:44:11;96114.06;;;-1.01;60.97
4199;BME280;2113;50.946;14.610;2022-12-11T11:46:46;96113.38;;;-1.34;60.92
4199;BME280;2113;50.946;14.610;2022-12-11T11:49:20;96105.63;;;-1.12;60.70
4199;BME280;2113;50.946;14.610;2022-12-11T11:51:55;96094.94;;;-0.49;59.73
4199;BME280;2113;50.946;14.610;2022-12-11T11:54:30;96091.09;;;-0.07;58.24
4199;BME280;2113;50.946;14.610;2022-12-11T11:57:03;96087.63;;;0.01;57.68
4199;BME280;2113;50.946;14.610;2022-12-11T11:59:37;96084.53;;;0.45;56.06
4199;BME280;2113;50.946;14.610;2022-12-11T12:02:13;96085.72;;;0.16;56.22
4199;BME280;2113;50.946;14.610;2022-12-11T12:04:44;96088.22;;;0.23;56.85
4199;BME280;2113;50.946;14.610;2022-12-11T12:07:25;96088.00;;;0.41;57.00
4199;BME280;2113;50.946;14.610;2022-12-11T12:10:02;96084.50;;;-0.26;58.40
4199;BME280;2113;50.946;14.610;2022-12-11T12:12:42;96080.00;;;-0.95;60.39
4199;BME280;2113;50.946;14.610;2022-12-11T12:15:19;96087.19;;;-0.40;59.16
4199;BME280;2113;50.946;14.610;2022-12-11T12:17:52;96083.75;;;-0.36;59.18
4199;BME280;2113;50.946;14.610;2022-12-11T12:20:34;96081.06;;;-0.24;58.68
4199;BME280;2113;50.946;14.610;2022-12-11T12:23:28;96086.56;;;0.18;57.93
4199;BME280;2113;50.946;14.610;2022-12-11T12:26:08;96085.25;;;-0.20;58.45
4199;BME280;2113;50.946;14.610;2022-12-11T12:28:44;96089.22;;;0.09;58.05
4199;BME280;2113;50.946;14.610;2022-12-11T12:31:29;96090.84;;;-0.69;58.16
4199;BME280;2113;50.946;14.610;2022-12-11T12:34:09;96091.63;;;-0.59;58.20
4199;BME280;2113;50.946;14.610;2022-12-11T12:36:49;96083.66;;;-0.27;58.32
4199;BME280;2113;50.946;14.610;2022-12-11T12:39:31;96089.16;;;-0.73;58.53
4199;BME280;2113;50.946;14.610;2022-12-11T12:42:08;96085.13;;;-1.02;59.87
4199;BME280;2113;50.946;14.610;2022-12-11T12:44:43;96083.59;;;-0.22;58.43
4199;BME280;2113;50.946;14.610;2022-12-11T12:47:17;96075.47;;;-0.61;58.43
4199;BME280;2113;50.946;14.610;2022-12-11T12:49:47;96079.75;;;-0.69;59.22
4199;BME280;2113;50.946;14.610;2022-12-11T12:52:20;96074.50;;;-0.52;58.34
4199;BME280;2113;50.946;14.610;2022-12-11T12:54:54;96071.53;;;-1.02;60.16
4199;BME280;2113;50.946;14.610;2022-12-11T12:57:40;96070.72;;;-1.09;60.11
4199;BME280;2113;50.946;14.610;2022-12-11T13:00:10;96067.94;;;-0.80;60.06
4199;BME280;2113;50.946;14.610;2022-12-11T13:02:47;96053.03;;;-0.30;59.19
4199;BME280;2113;50.946;14.610;2022-12-11T13:05:20;96053.50;;;0.05;58.42
4199;BME280;2113;50.946;14.610;2022-12-11T13:07:54;96053.59;;;-0.03;58.29
4199;BME280;2113;50.946;14.610;2022-12-11T13:10:26;96049.81;;;-0.52;59.86
4199;BME280;2113;50.946;14.610;2022-12-11T13:12:55;96051.03;;;-0.03;58.95
4199;BME280;2113;50.946;14.610;2022-12-11T13:15:35;96048.13;;;0.26;58.49
4199;BME280;2113;50.946;14.610;2022-12-11T13:18:30;96052.31;;;0.32;58.07
4199;BME280;2113;50.946;14.610;2022-12-11T13:21:01;96050.47;;;-0.28;58.74
4199;BME280;2113;50.946;14.610;2022-12-11T13:23:32;96045.50;;;-0.44;59.30
4199;BME280;2113;50.946;14.610;2022-12-11T13:26:02;96042.56;;;-0.08;59.20
4199;BME280;2113;50.946;14.610;2022-12-11T13:28:33;96041.38;;;-0.58;59.38
4199;BME280;2113;50.946;14.610;2022-12-11T13:31:32;96037.75;;;-0.36;59.64
4199;BME280;2113;50.946;14.610;2022-12-11T13:34:22;96044.16;;;-0.85;60.85
4199;BME280;2113;50.946;14.610;2022-12-11T13:36:52;96038.91;;;-0.68;61.29
4199;BME280;2113;50.946;14.610;2022-12-11T13:39:24;96051.69;;;-0.71;61.34